Askam-in-Furness, United Kingdom
Current Conditions -  °F | °C
As of 11:50 AM on Saturday 22 Nov 2014 (Local Time) from EGOW Reporting Station
Few Clouds Few Clouds  
Wind Chill: 57°   Ceiling: Unl
Heat Index: 57°   Visibility: 6mi
Dew Point: 50°   Wind: 8mph
Humidity: 77%   Direction: 200°SSW
Pressure: 29.97"   Gusts: NA
Location:  54.18°N, 3.22°W
Report Text: EGOW 221150Z 20007KT 9999 FEW030 14/10 Q1015 BLU
Loading
Personal Weather Stations






























Interactive Weather Map New forecast layout! Learn more

10-Day Weather Forecast

Advertisements
Track Severe Weather on mobile